Flight Track Log - Related Links

Times and Time Zones

All times are in EDT time to prevent confusion due to time zone crossing. See the SWA558 flight status page for this flight to view local times or setup timezone preferences in your user account.

Time Position Orientation Groundspeed Altitude Reporting Facility
EDT Latitude Longitude Course Direction KTS MPH feet Rate Location/Type
Mon 03:49:52 PM 41.7028 -87.8486 220° Southwest 189 217 4,000  Level Chicago Center
Mon 03:50:54 PM 41.6606 -87.9106 228° Southwest 216 249 4,000 1,258 Level Chicago Center
Mon 03:51:56 PM 41.6342 -88.0000 248° West 249 287 6,600 2,468 Climbing Chicago Center
Mon 03:52:58 PM 41.5789 -88.0603 219° Southwest 286 329 9,100 2,952 Climbing Chicago Center
Mon 03:54:00 PM 41.2511 -88.2411 201° Southwest  Level FlightAware Approximate
Mon 03:54:00 PM 41.4969 -88.1169 207° Southwest 286 329 12,700  Level Chicago Center
Mon 03:55:02 PM 41.4181 -88.1694 207° Southwest 331 381 13,800 1,887 Climbing Chicago Center
Mon 03:56:04 PM 41.3275 -88.2156 201° Southwest 361 415 16,600 2,784 Climbing Chicago Center
Mon 03:57:07 PM 41.2286 -88.2597 199° South 376 433 19,600 2,880 Climbing Chicago Center
Mon 03:58:09 PM 41.1058 -88.3156 199° South 389 448 22,600 2,468 Climbing Chicago Center
Mon 03:59:11 PM 40.9969 -88.3644 199° South 406 467 24,700 1,935 Climbing Chicago Center
Mon 04:00:13 PM 40.8867 -88.4211 201° Southwest 425 489 26,600 1,839 Climbing Chicago Center
Mon 04:01:15 PM 40.7925 -88.5200 218° Southwest 432 497 28,500 1,839 Climbing Chicago Center
Mon 04:02:17 PM 40.6978 -88.6197 219° Southwest 438 504 30,400 2,323 Climbing Chicago Center
Mon 04:03:19 PM 40.5864 -88.7369 219° Southwest 429 494 33,300 2,226 Climbing Chicago Center
Mon 04:04:21 PM 40.4964 -88.8311 219° Southwest 420 483 35,000 823 Climbing Chicago Center
Mon 04:05:23 PM 40.4022 -88.9289 218° Southwest 414 476 35,000  Level Chicago Center
Mon 04:06:25 PM 40.3106 -89.0244 218° Southwest 415 478 35,000  Level Chicago Center
Mon 04:07:27 PM 40.2197 -89.1178 218° Southwest 417 480 35,000 387 Level Chicago Center
Mon 04:08:29 PM 40.1261 -89.2122 218° Southwest 422 486 35,800 990 Climbing Chicago Center
Mon 04:09:10 PM 40.0697 -89.2700 218° Southwest 420 483 36,700 699 Climbing Kansas City Center
Mon 04:10:12 PM 39.9592 -89.3819 218° Southwest 418 481 37,000 214 Climbing Kansas City Center
Mon 04:10:34 PM 39.9417 -89.4017 221° Southwest 422 486 37,000  Level Chicago Center
Mon 04:11:14 PM 39.8683 -89.4756 218° Southwest 416 479 37,000 235 Level Kansas City Center
Mon 04:12:16 PM 39.7758 -89.5675 217° Southwest 417 480 37,400 484 Climbing Kansas City Center
Mon 04:13:18 PM 39.6817 -89.6631 218° Southwest 418 481 38,000 290 Climbing Kansas City Center
Mon 04:14:20 PM 39.5908 -89.7569 219° Southwest 418 481 38,000  Level Kansas City Center
Mon 04:15:22 PM 39.4994 -89.8472 217° Southwest 417 480 38,000  Level Kansas City Center
Mon 04:16:24 PM 39.4089 -89.9394 218° Southwest 415 478 38,000  Level Kansas City Center
Mon 04:17:26 PM 39.2994 -90.0486 218° Southwest 416 479 38,000  Level Kansas City Center
Mon 04:18:28 PM 39.2092 -90.1394 218° Southwest 414 476 38,000  Level Kansas City Center
Mon 04:19:30 PM 39.1186 -90.2303 218° Southwest 414 476 38,000  Level Kansas City Center
Mon 04:20:32 PM 39.0267 -90.3208 217° Southwest 416 479 38,000  Level Kansas City Center
Mon 04:21:34 PM 38.9228 -90.4203 217° Southwest 412 474 38,000  Level Kansas City Center
Mon 04:22:36 PM 38.8317 -90.5122 218° Southwest 411 473 38,000  Level Kansas City Center
Mon 04:23:38 PM 38.7458 -90.6117 222° Southwest 409 471 38,000  Level Kansas City Center
Mon 04:24:40 PM 38.6603 -90.7125 223° Southwest 411 473 38,000  Level Kansas City Center
Mon 04:25:42 PM 38.5733 -90.8150 223° Southwest 420 483 38,000  Level Kansas City Center
Mon 04:26:44 PM 38.4875 -90.9131 222° Southwest 420 483 38,000  Level Kansas City Center
Mon 04:27:46 PM 38.3842 -91.0289 221° Southwest 415 478 38,000  Level Kansas City Center
Mon 04:28:48 PM 38.2975 -91.1278 222° Southwest 418 481 38,000  Level Kansas City Center
Mon 04:29:50 PM 38.2089 -91.2278 222° Southwest 425 489 38,000  Level Kansas City Center
Mon 04:30:53 PM 38.1181 -91.3317 222° Southwest 425 489 38,000  Level Kansas City Center
Mon 04:31:55 PM 38.0275 -91.4322 221° Southwest 426 490 38,000  Level Kansas City Center
Mon 04:32:57 PM 37.9389 -91.5333 222° Southwest 426 490 38,000  Level Kansas City Center
Mon 04:33:59 PM 37.8475 -91.6333 221° Southwest 430 495 38,000  Level Kansas City Center
Mon 04:35:01 PM 37.7422 -91.7542 222° Southwest 425 489 38,000  Level Kansas City Center
Mon 04:36:03 PM 37.6531 -91.8536 221° Southwest 424 488 38,000  Level Kansas City Center
Mon 04:37:05 PM 37.5631 -91.9544 222° Southwest 426 490 38,000  Level Kansas City Center
Mon 04:38:07 PM 37.4725 -92.0550 221° Southwest 429 494 38,000  Level Kansas City Center
Mon 04:39:09 PM 37.3828 -92.1558 222° Southwest 429 494 38,000  Level Kansas City Center
Mon 04:40:11 PM 37.2928 -92.2544 221° Southwest 428 493 38,000  Level Kansas City Center
Mon 04:41:13 PM 37.2019 -92.3544 221° Southwest 430 495 38,000  Level Kansas City Center
Mon 04:42:15 PM 37.1111 -92.4531 221° Southwest 431 496 38,000  Level Kansas City Center
Mon 04:43:17 PM 37.0017 -92.5711 221° Southwest 431 496 38,000  Level Kansas City Center
Mon 04:44:19 PM 36.9106 -92.6694 221° Southwest 432 497 38,000  Level Kansas City Center
Mon 04:45:21 PM 36.8203 -92.7681 221° Southwest 431 496 38,000  Level Kansas City Center
Mon 04:46:21 PM 36.7233 -92.8706 220° Southwest 438 504 38,000  Level Memphis Center
Mon 04:47:21 PM 36.6336 -92.9711 222° Southwest 438 504 38,000  Level Memphis Center
Mon 04:48:21 PM 36.5442 -93.0664 221° Southwest 438 504 38,000  Level Memphis Center
Mon 04:49:21 PM 36.4694 -93.1439 220° Southwest 438 504 38,000  Level Memphis Center
Mon 04:50:21 PM 36.3711 -93.2514 221° Southwest 433 498 38,000  Level Memphis Center
Mon 04:51:21 PM 36.2792 -93.3458 220° Southwest 440 506 38,000  Level Memphis Center
Mon 04:52:21 PM 36.1894 -93.4431 221° Southwest 440 506 38,000  Level Memphis Center
Mon 04:53:21 PM 36.0994 -93.5397 221° Southwest 440 506 38,000  Level Memphis Center
Mon 04:54:21 PM 36.0050 -93.6336 219° Southwest 440 506 38,000  Level Memphis Center
Mon 04:55:21 PM 35.9108 -93.7322 220° Southwest 435 501 38,000  Level Memphis Center
Mon 04:56:21 PM 35.8183 -93.8283 220° Southwest 435 501 38,000  Level Memphis Center
Mon 04:57:21 PM 35.7261 -93.9217 219° Southwest 435 501 38,000  Level Memphis Center
Mon 04:58:21 PM 35.6378 -94.0175 221° Southwest 435 501 38,000  Level Memphis Center
Mon 04:59:21 PM 35.5347 -94.1228 220° Southwest 441 507 38,000  Level Memphis Center
Mon 05:00:21 PM 35.4400 -94.2153 219° Southwest 441 507 38,000  Level Memphis Center
Mon 05:01:21 PM 35.3433 -94.3025 216° Southwest 436 502 38,000  Level Memphis Center
Mon 05:02:21 PM 35.2386 -94.3839 212° Southwest 441 507 38,000  Level Memphis Center
Mon 05:04:06 PM 35.0622 -94.5219 213° Southwest 430 495 38,000  Level Fort Worth Center
Mon 05:05:06 PM 34.9556 -94.6017 211° Southwest 436 502 38,000  Level Fort Worth Center
Mon 05:06:06 PM 34.8511 -94.6836 213° Southwest 447 514 38,000  Level Fort Worth Center
Mon 05:07:06 PM 34.7464 -94.7653 213° Southwest 452 520 38,000  Level Fort Worth Center
Mon 05:08:06 PM 34.6436 -94.8417 211° Southwest 447 514 38,000  Level Fort Worth Center
Mon 05:09:06 PM 34.5389 -94.9203 212° Southwest 447 514 38,000  Level Fort Worth Center
Mon 05:10:06 PM 34.4381 -94.9961 212° Southwest 447 514 38,000  Level Fort Worth Center
Mon 05:11:06 PM 34.3353 -95.0719 211° Southwest 442 509 38,000  Level Fort Worth Center
Mon 05:12:06 PM 34.2344 -95.1475 212° Southwest 442 509 38,000  Level Fort Worth Center
Mon 05:13:06 PM 34.1333 -95.2231 212° Southwest 442 509 38,000  Level Fort Worth Center
Mon 05:14:06 PM 34.0303 -95.2983 211° Southwest 435 501 38,000  Level Fort Worth Center
Mon 05:15:06 PM 33.9294 -95.3733 212° Southwest 430 495 38,000  Level Fort Worth Center
Mon 05:16:06 PM 33.8283 -95.4481 212° Southwest 430 495 38,000  Level Fort Worth Center
Mon 05:17:06 PM 33.7292 -95.5178 210° Southwest 425 489 38,000  Level Fort Worth Center
Mon 05:18:06 PM 33.6258 -95.5925 211° Southwest 425 489 38,000  Level Fort Worth Center
Mon 05:19:06 PM 33.5372 -95.6592 212° Southwest 419 482 38,000  Level Fort Worth Center
Mon 05:20:06 PM 33.4256 -95.7408 211° Southwest 429 494 38,000  Level Fort Worth Center
Mon 05:21:06 PM 33.3325 -95.8072 211° Southwest 429 494 38,000  Level Fort Worth Center
Mon 05:22:06 PM 33.2186 -95.8889 211° Southwest 429 494 38,000  Level Fort Worth Center
Mon 05:23:06 PM 33.1256 -95.9597 213° Southwest 434 499 38,000 -450 Level Fort Worth Center
Mon 05:24:06 PM 33.0139 -96.0386 211° Southwest 434 499 37,100 -900 Descending Fort Worth Center
Mon 05:25:06 PM 32.9103 -96.1117 211° Southwest 434 499 36,200 -545 Descending Fort Worth Center
Mon 05:26:07 PM 32.8086 -96.1850 211° Southwest 434 499 36,000 -100 Descending Fort Worth Center
Mon 05:27:06 PM 32.7069 -96.2581 211° Southwest 434 499 36,000  Level Fort Worth Center
Mon 05:28:06 PM 32.6158 -96.3233 211° Southwest 429 494 36,000  Level Fort Worth Center
Mon 05:29:06 PM 32.5058 -96.4008 211° Southwest 424 488 36,000  Level Fort Worth Center
Mon 05:30:06 PM 32.4164 -96.4636 211° Southwest 424 488 36,000  Level Fort Worth Center
Mon 05:31:06 PM 32.3083 -96.5408 211° Southwest 424 488 36,000 -200 Level Fort Worth Center
Mon 05:32:06 PM 32.2211 -96.6078 213° Southwest 424 488 35,600 -700 Descending Fort Worth Center
Mon 05:33:06 PM 32.1089 -96.6800 209° Southwest 415 478 34,600 -1,000 Descending Fort Worth Center
Mon 05:34:06 PM 32.0111 -96.7469 210° Southwest 422 486 33,600 -1,000 Descending Fort Worth Center
Mon 05:35:06 PM 31.9072 -96.8114 208° Southwest 417 480 32,600 -1,000 Descending Fort Worth Center
Mon 05:36:06 PM 31.8008 -96.8683 204° Southwest 417 480 31,600 -1,024 Descending Fort Worth Center
Mon 05:37:56 PM 31.6192 -96.9728 206° Southwest 399 459 29,700 -1,151 Descending Houston Center
Mon 05:38:58 PM 31.5222 -97.0297 207° Southwest 389 448 28,300 -1,584 Descending Houston Center
Mon 05:40:01 PM 31.4267 -97.0831 205° Southwest 376 433 26,400 -1,824 Descending Houston Center
Mon 05:41:03 PM 31.3350 -97.1361 206° Southwest 366 421 24,500 -1,790 Descending Houston Center
Mon 05:42:05 PM 31.2447 -97.1881 206° Southwest 359 413 22,700 -1,742 Descending Houston Center
Mon 05:43:07 PM 31.1489 -97.2333 202° Southwest 373 429 20,900 -2,323 Descending Houston Center
Mon 05:44:09 PM 31.0236 -97.2814 198° South 401 461 17,900 -2,468 Descending Houston Center
Mon 05:45:11 PM 30.9331 -97.3164 198° South 397 457 15,800 -2,226 Descending Houston Center
Mon 05:46:13 PM 30.8242 -97.3581 198° South 380 437 13,300 -2,177 Descending Houston Center
Mon 05:47:15 PM 30.7392 -97.4147 210° Southwest 351 404 11,300 -1,597 Descending Houston Center
Mon 05:48:17 PM 30.6519 -97.4867 215° Southwest 330 380 10,000 -1,536 Descending Houston Center
Mon 05:49:20 PM 30.5881 -97.5383 215° Southwest 286 329 8,100 -1,824 Descending Houston Center
Mon 05:50:22 PM 30.5253 -97.5906 216° Southwest 277 319 6,200 -1,887 Descending Houston Center
Mon 05:51:24 PM 30.4556 -97.6189 199° South 274 315 4,200 -1,306 Descending Houston Center
Mon 05:52:26 PM 30.3875 -97.6386 194° South 255 293 3,500 -823 Descending Houston Center
Mon 05:53:28 PM 30.3356 -97.6517 192° South 211 243 2,500 -581 Descending Houston Center
Mon 05:54:30 PM 30.2953 -97.6600 190° South 169 194 2,300 -581 Descending Houston Center
Mon 05:55:32 PM 30.2514 -97.6600 180° South 143 165 1,300 -581 Descending Houston Center
Mon 05:56:34 PM 30.2192 -97.6594 179° South 140 161 1,100 -194 Descending Houston Center
Mon 05:58:00 PM 30.1945 -97.6699 221° Southwest  Level Estimated
Mon 06:05:00 PM 30.1945 -97.6699 221° Southwest  Level Estimated

Login

Don't have an account? Register now (free) for customized features, flight alerts, and more!